sensor_id;sensor_type;location;lat;lon;timestamp;temperature;humidity
1958;DHT22;979;51.076;13.748;2023-03-01T00:01:49;0.00;56.20
1958;DHT22;979;51.076;13.748;2023-03-01T00:04:18;-0.10;56.20
1958;DHT22;979;51.076;13.748;2023-03-01T00:06:46;-0.10;56.40
1958;DHT22;979;51.076;13.748;2023-03-01T00:09:15;-0.30;56.40
1958;DHT22;979;51.076;13.748;2023-03-01T00:11:44;-0.30;56.50
1958;DHT22;979;51.076;13.748;2023-03-01T00:14:13;-0.20;56.70
1958;DHT22;979;51.076;13.748;2023-03-01T00:16:44;-0.40;56.60
1958;DHT22;979;51.076;13.748;2023-03-01T00:19:16;-0.30;56.70
1958;DHT22;979;51.076;13.748;2023-03-01T00:21:45;-0.50;56.50
1958;DHT22;979;51.076;13.748;2023-03-01T00:24:13;-0.50;56.70
1958;DHT22;979;51.076;13.748;2023-03-01T00:26:42;-0.30;56.80
1958;DHT22;979;51.076;13.748;2023-03-01T00:29:11;-0.50;56.70
1958;DHT22;979;51.076;13.748;2023-03-01T00:31:42;-0.40;56.90
1958;DHT22;979;51.076;13.748;2023-03-01T00:34:10;-0.60;56.80
1958;DHT22;979;51.076;13.748;2023-03-01T00:36:40;-0.60;57.00
1958;DHT22;979;51.076;13.748;2023-03-01T00:39:11;-0.50;57.00
1958;DHT22;979;51.076;13.748;2023-03-01T00:41:39;-0.40;57.00
1958;DHT22;979;51.076;13.748;2023-03-01T00:44:08;-0.60;56.90
1958;DHT22;979;51.076;13.748;2023-03-01T00:46:37;-0.70;56.80
1958;DHT22;979;51.076;13.748;2023-03-01T00:49:05;-0.70;56.80
1958;DHT22;979;51.076;13.748;2023-03-01T00:51:34;-0.60;57.00
1958;DHT22;979;51.076;13.748;2023-03-01T00:54:04;-0.80;57.00
1958;DHT22;979;51.076;13.748;2023-03-01T00:56:32;-0.80;57.00
1958;DHT22;979;51.076;13.748;2023-03-01T00:59:01;-0.80;57.00
1958;DHT22;979;51.076;13.748;2023-03-01T01:01:30;-0.80;57.00
1958;DHT22;979;51.076;13.748;2023-03-01T01:04:01;-0.80;57.00
1958;DHT22;979;51.076;13.748;2023-03-01T01:06:32;-0.70;56.90
1958;DHT22;979;51.076;13.748;2023-03-01T01:09:04;-0.80;56.80
1958;DHT22;979;51.076;13.748;2023-03-01T01:11:34;-0.80;56.90
1958;DHT22;979;51.076;13.748;2023-03-01T01:14:03;-0.80;56.80
1958;DHT22;979;51.076;13.748;2023-03-01T01:16:32;-0.90;56.90
1958;DHT22;979;51.076;13.748;2023-03-01T01:19:01;-0.90;56.90
1958;DHT22;979;51.076;13.748;2023-03-01T01:21:29;-0.90;56.90
1958;DHT22;979;51.076;13.748;2023-03-01T01:23:58;-0.90;57.00
1958;DHT22;979;51.076;13.748;2023-03-01T01:26:30;-1.00;56.90
1958;DHT22;979;51.076;13.748;2023-03-01T01:29:00;-0.90;57.00
1958;DHT22;979;51.076;13.748;2023-03-01T01:31:30;-1.00;57.00
1958;DHT22;979;51.076;13.748;2023-03-01T01:34:00;-1.00;57.00
1958;DHT22;979;51.076;13.748;2023-03-01T01:36:29;-1.00;57.00
1958;DHT22;979;51.076;13.748;2023-03-01T01:38:59;-1.00;57.00
1958;DHT22;979;51.076;13.748;2023-03-01T01:41:29;-0.90;57.10
1958;DHT22;979;51.076;13.748;2023-03-01T01:44:14;-1.10;57.10
1958;DHT22;979;51.076;13.748;2023-03-01T01:46:45;-1.10;57.60
1958;DHT22;979;51.076;13.748;2023-03-01T01:49:22;-0.90;57.20
1958;DHT22;979;51.076;13.748;2023-03-01T01:51:57;-0.90;57.30
1958;DHT22;979;51.076;13.748;2023-03-01T01:54:30;-1.00;57.20
1958;DHT22;979;51.076;13.748;2023-03-01T01:57:07;-1.20;57.20
1958;DHT22;979;51.076;13.748;2023-03-01T01:59:38;-1.20;57.20
1958;DHT22;979;51.076;13.748;2023-03-01T02:02:07;-1.20;57.30
1958;DHT22;979;51.076;13.748;2023-03-01T02:04:35;-1.00;57.50
1958;DHT22;979;51.076;13.748;2023-03-01T02:07:09;-1.20;57.40
1958;DHT22;979;51.076;13.748;2023-03-01T02:09:40;-1.20;57.40
1958;DHT22;979;51.076;13.748;2023-03-01T02:12:10;-1.10;57.50
1958;DHT22;979;51.076;13.748;2023-03-01T02:14:39;-1.20;57.40
1958;DHT22;979;51.076;13.748;2023-03-01T02:17:08;-1.20;57.50
1958;DHT22;979;51.076;13.748;2023-03-01T02:19:44;-1.30;58.00
1958;DHT22;979;51.076;13.748;2023-03-01T02:22:22;-1.30;57.30
1958;DHT22;979;51.076;13.748;2023-03-01T02:25:01;-1.10;57.60
1958;DHT22;979;51.076;13.748;2023-03-01T02:27:38;-1.30;57.60
1958;DHT22;979;51.076;13.748;2023-03-01T02:30:11;-1.40;57.50
1958;DHT22;979;51.076;13.748;2023-03-01T02:32:40;-1.40;57.60
1958;DHT22;979;51.076;13.748;2023-03-01T02:35:12;-1.50;57.50
1958;DHT22;979;51.076;13.748;2023-03-01T02:41:02;-1.50;57.50
1958;DHT22;979;51.076;13.748;2023-03-01T02:43:33;-1.50;57.60
1958;DHT22;979;51.076;13.748;2023-03-01T02:46:07;-1.60;57.70
1958;DHT22;979;51.076;13.748;2023-03-01T02:48:41;-1.50;57.70
1958;DHT22;979;51.076;13.748;2023-03-01T02:51:31;-1.60;57.60
1958;DHT22;979;51.076;13.748;2023-03-01T02:54:10;-1.60;57.60
1958;DHT22;979;51.076;13.748;2023-03-01T02:56:39;-1.40;57.90
1958;DHT22;979;51.076;13.748;2023-03-01T02:59:09;-1.70;57.70
1958;DHT22;979;51.076;13.748;2023-03-01T03:01:39;-1.70;57.70
1958;DHT22;979;51.076;13.748;2023-03-01T03:04:11;-1.80;57.70
1958;DHT22;979;51.076;13.748;2023-03-01T03:06:49;-1.70;57.80
1958;DHT22;979;51.076;13.748;2023-03-01T03:09:18;-1.60;57.90
1958;DHT22;979;51.076;13.748;2023-03-01T03:11:47;-1.70;57.90
1958;DHT22;979;51.076;13.748;2023-03-01T03:14:16;-1.70;57.80
1958;DHT22;979;51.076;13.748;2023-03-01T03:16:49;-1.70;57.70
1958;DHT22;979;51.076;13.748;2023-03-01T03:19:18;-1.80;57.80
1958;DHT22;979;51.076;13.748;2023-03-01T03:21:47;-1.60;58.00
1958;DHT22;979;51.076;13.748;2023-03-01T03:24:16;-1.80;57.90
1958;DHT22;979;51.076;13.748;2023-03-01T03:26:48;-1.90;57.90
1958;DHT22;979;51.076;13.748;2023-03-01T03:29:16;-1.90;57.80
1958;DHT22;979;51.076;13.748;2023-03-01T03:31:44;-1.90;57.90
1958;DHT22;979;51.076;13.748;2023-03-01T03:34:14;-1.80;58.00
1958;DHT22;979;51.076;13.748;2023-03-01T03:36:45;-2.00;57.90
1958;DHT22;979;51.076;13.748;2023-03-01T03:39:13;-1.90;57.90
1958;DHT22;979;51.076;13.748;2023-03-01T03:41:41;-2.00;57.90
1958;DHT22;979;51.076;13.748;2023-03-01T03:44:10;-2.00;57.90
1958;DHT22;979;51.076;13.748;2023-03-01T03:46:38;-2.00;57.90
1958;DHT22;979;51.076;13.748;2023-03-01T03:49:07;-2.00;57.90
1958;DHT22;979;51.076;13.748;2023-03-01T03:51:37;-2.00;57.90
1958;DHT22;979;51.076;13.748;2023-03-01T03:54:05;-1.90;58.00
1958;DHT22;979;51.076;13.748;2023-03-01T03:56:34;-2.10;57.90
1958;DHT22;979;51.076;13.748;2023-03-01T03:59:02;-2.10;57.90
1958;DHT22;979;51.076;13.748;2023-03-01T04:01:31;-1.90;58.00
1958;DHT22;979;51.076;13.748;2023-03-01T04:03:59;-2.10;57.90
1958;DHT22;979;51.076;13.748;2023-03-01T04:06:31;-2.10;57.80
1958;DHT22;979;51.076;13.748;2023-03-01T04:09:01;-2.10;57.70
1958;DHT22;979;51.076;13.748;2023-03-01T04:11:29;-1.90;57.90
1958;DHT22;979;51.076;13.748;2023-03-01T04:13:58;-2.10;57.80
1958;DHT22;979;51.076;13.748;2023-03-01T04:16:27;-2.20;57.70
1958;DHT22;979;51.076;13.748;2023-03-01T04:18:56;-2.00;58.00
1958;DHT22;979;51.076;13.748;2023-03-01T04:21:26;-2.20;57.80
1958;DHT22;979;51.076;13.748;2023-03-01T04:23:55;-2.30;57.90
1958;DHT22;979;51.076;13.748;2023-03-01T04:26:25;-2.30;57.90
1958;DHT22;979;51.076;13.748;2023-03-01T04:28:57;-2.30;58.00
1958;DHT22;979;51.076;13.748;2023-03-01T04:31:29;-2.10;58.10
1958;DHT22;979;51.076;13.748;2023-03-01T04:33:58;-2.30;58.00
1958;DHT22;979;51.076;13.748;2023-03-01T04:36:28;-2.20;58.10
1958;DHT22;979;51.076;13.748;2023-03-01T04:38:58;-2.40;57.90
1958;DHT22;979;51.076;13.748;2023-03-01T04:41:28;-2.40;58.00
1958;DHT22;979;51.076;13.748;2023-03-01T04:43:57;-2.30;58.20
1958;DHT22;979;51.076;13.748;2023-03-01T04:46:27;-2.20;58.20
1958;DHT22;979;51.076;13.748;2023-03-01T04:48:56;-2.50;57.90
1958;DHT22;979;51.076;13.748;2023-03-01T04:51:24;-2.30;58.10
1958;DHT22;979;51.076;13.748;2023-03-01T04:53:53;-2.50;58.10
1958;DHT22;979;51.076;13.748;2023-03-01T04:56:21;-2.50;58.00
1958;DHT22;979;51.076;13.748;2023-03-01T04:58:53;-2.40;58.20
1958;DHT22;979;51.076;13.748;2023-03-01T05:01:22;-2.50;58.00
1958;DHT22;979;51.076;13.748;2023-03-01T05:03:51;-2.50;58.00
1958;DHT22;979;51.076;13.748;2023-03-01T05:06:20;-2.40;58.00
1958;DHT22;979;51.076;13.748;2023-03-01T05:08:49;-2.40;58.00
1958;DHT22;979;51.076;13.748;2023-03-01T05:11:17;-2.50;58.10
1958;DHT22;979;51.076;13.748;2023-03-01T05:13:46;-2.70;58.00
1958;DHT22;979;51.076;13.748;2023-03-01T05:16:15;-2.80;57.90
1958;DHT22;979;51.076;13.748;2023-03-01T05:18:44;-2.60;58.00
1958;DHT22;979;51.076;13.748;2023-03-01T05:21:13;-2.60;58.00
1958;DHT22;979;51.076;13.748;2023-03-01T05:23:44;-2.60;57.90
1958;DHT22;979;51.076;13.748;2023-03-01T05:26:15;-2.60;58.00
1958;DHT22;979;51.076;13.748;2023-03-01T05:28:59;-2.40;58.10
1958;DHT22;979;51.076;13.748;2023-03-01T05:31:29;-2.60;58.10
1958;DHT22;979;51.076;13.748;2023-03-01T05:33:58;-2.60;58.00
1958;DHT22;979;51.076;13.748;2023-03-01T05:36:26;-2.40;58.30
1958;DHT22;979;51.076;13.748;2023-03-01T05:38:55;-2.40;58.20
1958;DHT22;979;51.076;13.748;2023-03-01T05:41:24;-2.40;58.00
1958;DHT22;979;51.076;13.748;2023-03-01T05:43:52;-2.60;58.00
1958;DHT22;979;51.076;13.748;2023-03-01T05:46:21;-2.60;58.00
1958;DHT22;979;51.076;13.748;2023-03-01T05:48:53;-2.60;58.10
1958;DHT22;979;51.076;13.748;2023-03-01T05:51:22;-2.70;58.00
1958;DHT22;979;51.076;13.748;2023-03-01T05:53:50;-2.70;58.10
1958;DHT22;979;51.076;13.748;2023-03-01T05:56:19;-2.60;58.20
1958;DHT22;979;51.076;13.748;2023-03-01T05:58:49;-2.50;58.20
1958;DHT22;979;51.076;13.748;2023-03-01T06:01:17;-2.50;58.30
1958;DHT22;979;51.076;13.748;2023-03-01T06:03:46;-2.60;58.10
1958;DHT22;979;51.076;13.748;2023-03-01T06:06:16;-2.50;58.20
1958;DHT22;979;51.076;13.748;2023-03-01T06:08:44;-2.60;58.10
1958;DHT22;979;51.076;13.748;2023-03-01T06:11:13;-2.70;58.10
1958;DHT22;979;51.076;13.748;2023-03-01T06:13:42;-2.60;58.60
1958;DHT22;979;51.076;13.748;2023-03-01T06:16:11;-2.50;59.30
1958;DHT22;979;51.076;13.748;2023-03-01T06:18:40;-2.40;59.20
1958;DHT22;979;51.076;13.748;2023-03-01T06:21:09;-2.30;59.10
1958;DHT22;979;51.076;13.748;2023-03-01T06:23:39;-2.30;59.60
1958;DHT22;979;51.076;13.748;2023-03-01T06:26:28;-1.90;60.70
1958;DHT22;979;51.076;13.748;2023-03-01T06:28:57;-2.00;60.70
1958;DHT22;979;51.076;13.748;2023-03-01T06:31:26;-1.80;61.00
1958;DHT22;979;51.076;13.748;2023-03-01T06:33:54;-1.70;60.80
1958;DHT22;979;51.076;13.748;2023-03-01T06:36:23;-1.50;60.70
1958;DHT22;979;51.076;13.748;2023-03-01T06:38:52;-1.60;60.70
1958;DHT22;979;51.076;13.748;2023-03-01T06:41:21;-1.60;61.00
1958;DHT22;979;51.076;13.748;2023-03-01T06:43:49;-1.50;61.00
1958;DHT22;979;51.076;13.748;2023-03-01T06:46:18;-1.40;61.80
1958;DHT22;979;51.076;13.748;2023-03-01T06:48:47;-1.40;60.90
1958;DHT22;979;51.076;13.748;2023-03-01T06:51:17;-1.10;61.80
1958;DHT22;979;51.076;13.748;2023-03-01T06:53:46;-1.20;61.30
1958;DHT22;979;51.076;13.748;2023-03-01T06:56:16;-1.20;61.00
1958;DHT22;979;51.076;13.748;2023-03-01T06:58:45;-1.20;61.40
1958;DHT22;979;51.076;13.748;2023-03-01T07:01:13;-0.90;61.90
1958;DHT22;979;51.076;13.748;2023-03-01T07:03:41;-1.10;61.80
1958;DHT22;979;51.076;13.748;2023-03-01T07:06:11;-1.00;62.20
1958;DHT22;979;51.076;13.748;2023-03-01T07:08:39;-0.70;62.40
1958;DHT22;979;51.076;13.748;2023-03-01T07:11:08;-0.80;61.80
1958;DHT22;979;51.076;13.748;2023-03-01T07:13:38;-0.80;61.50
1958;DHT22;979;51.076;13.748;2023-03-01T07:16:07;-0.70;61.30
1958;DHT22;979;51.076;13.748;2023-03-01T07:18:36;-0.70;61.30
1958;DHT22;979;51.076;13.748;2023-03-01T07:21:05;-0.70;61.10
1958;DHT22;979;51.076;13.748;2023-03-01T07:23:34;-0.70;61.00
1958;DHT22;979;51.076;13.748;2023-03-01T07:26:03;-0.50;61.30
1958;DHT22;979;51.076;13.748;2023-03-01T07:28:32;-0.60;61.10
1958;DHT22;979;51.076;13.748;2023-03-01T07:31:04;-0.50;61.20
1958;DHT22;979;51.076;13.748;2023-03-01T07:33:33;-0.50;61.00
1958;DHT22;979;51.076;13.748;2023-03-01T07:36:03;-0.40;61.20
1958;DHT22;979;51.076;13.748;2023-03-01T07:38:32;-0.30;61.00
1958;DHT22;979;51.076;13.748;2023-03-01T07:41:02;-0.30;61.10
1958;DHT22;979;51.076;13.748;2023-03-01T07:43:32;-0.30;60.90
1958;DHT22;979;51.076;13.748;2023-03-01T07:46:04;-0.20;61.10
1958;DHT22;979;51.076;13.748;2023-03-01T07:48:33;-0.10;61.10
1958;DHT22;979;51.076;13.748;2023-03-01T07:51:04;0.20;61.30
1958;DHT22;979;51.076;13.748;2023-03-01T07:53:33;0.10;61.10
1958;DHT22;979;51.076;13.748;2023-03-01T07:56:03;0.10;61.00
1958;DHT22;979;51.076;13.748;2023-03-01T07:58:34;0.10;60.90
1958;DHT22;979;51.076;13.748;2023-03-01T08:01:06;0.20;61.10
1958;DHT22;979;51.076;13.748;2023-03-01T08:03:35;0.30;61.10
1958;DHT22;979;51.076;13.748;2023-03-01T08:06:05;0.30;61.10
1958;DHT22;979;51.076;13.748;2023-03-01T08:08:34;0.40;61.10
1958;DHT22;979;51.076;13.748;2023-03-01T08:11:06;0.60;61.30
1958;DHT22;979;51.076;13.748;2023-03-01T08:13:35;0.60;61.10
1958;DHT22;979;51.076;13.748;2023-03-01T08:16:07;0.60;61.10
1958;DHT22;979;51.076;13.748;2023-03-01T08:18:38;0.80;61.20
1958;DHT22;979;51.076;13.748;2023-03-01T08:21:09;0.90;61.30
1958;DHT22;979;51.076;13.748;2023-03-01T08:23:38;1.00;61.20
1958;DHT22;979;51.076;13.748;2023-03-01T08:26:08;1.10;61.10
1958;DHT22;979;51.076;13.748;2023-03-01T08:28:37;1.20;61.10
1958;DHT22;979;51.076;13.748;2023-03-01T08:31:15;1.40;61.50
1958;DHT22;979;51.076;13.748;2023-03-01T08:33:44;1.50;62.00
1958;DHT22;979;51.076;13.748;2023-03-01T08:36:17;1.50;61.30
1958;DHT22;979;51.076;13.748;2023-03-01T08:38:48;1.50;61.10
1958;DHT22;979;51.076;13.748;2023-03-01T08:41:16;1.70;61.30
1958;DHT22;979;51.076;13.748;2023-03-01T08:43:45;1.70;61.20
1958;DHT22;979;51.076;13.748;2023-03-01T08:46:14;1.80;61.30
1958;DHT22;979;51.076;13.748;2023-03-01T08:48:43;1.80;61.30
1958;DHT22;979;51.076;13.748;2023-03-01T08:51:13;1.90;61.30
1958;DHT22;979;51.076;13.748;2023-03-01T08:53:42;2.10;61.20
1958;DHT22;979;51.076;13.748;2023-03-01T08:56:11;2.00;61.10
1958;DHT22;979;51.076;13.748;2023-03-01T08:58:44;2.10;61.30
1958;DHT22;979;51.076;13.748;2023-03-01T09:01:15;2.20;61.30
1958;DHT22;979;51.076;13.748;2023-03-01T09:03:44;2.40;61.40
1958;DHT22;979;51.076;13.748;2023-03-01T09:06:14;2.70;62.20
1958;DHT22;979;51.076;13.748;2023-03-01T09:08:44;2.50;61.20
1958;DHT22;979;51.076;13.748;2023-03-01T09:11:18;2.80;61.40
1958;DHT22;979;51.076;13.748;2023-03-01T09:13:47;2.90;61.40
1958;DHT22;979;51.076;13.748;2023-03-01T09:16:19;2.80;61.20
1958;DHT22;979;51.076;13.748;2023-03-01T09:18:49;3.10;61.50
1958;DHT22;979;51.076;13.748;2023-03-01T09:21:20;3.10;61.40
1958;DHT22;979;51.076;13.748;2023-03-01T09:24:12;3.30;61.40
1958;DHT22;979;51.076;13.748;2023-03-01T09:26:40;3.40;61.50
1958;DHT22;979;51.076;13.748;2023-03-01T09:29:09;3.50;61.40
1958;DHT22;979;51.076;13.748;2023-03-01T09:31:39;3.60;61.30
1958;DHT22;979;51.076;13.748;2023-03-01T09:34:09;3.70;61.30
1958;DHT22;979;51.076;13.748;2023-03-01T09:36:38;3.70;61.10
1958;DHT22;979;51.076;13.748;2023-03-01T09:39:06;3.80;61.00
1958;DHT22;979;51.076;13.748;2023-03-01T09:41:45;4.00;61.10
1958;DHT22;979;51.076;13.748;2023-03-01T09:44:23;3.90;60.80
1958;DHT22;979;51.076;13.748;2023-03-01T09:46:56;3.90;60.80
1958;DHT22;979;51.076;13.748;2023-03-01T09:49:26;4.00;60.60
1958;DHT22;979;51.076;13.748;2023-03-01T09:52:00;4.00;60.70
1958;DHT22;979;51.076;13.748;2023-03-01T09:54:32;4.20;60.80
1958;DHT22;979;51.076;13.748;2023-03-01T09:57:15;4.30;60.90
1958;DHT22;979;51.076;13.748;2023-03-01T09:59:59;4.30;60.50
1958;DHT22;979;51.076;13.748;2023-03-01T10:02:38;4.40;60.40
1958;DHT22;979;51.076;13.748;2023-03-01T10:05:24;4.50;60.70
1958;DHT22;979;51.076;13.748;2023-03-01T10:08:03;4.80;60.90
1958;DHT22;979;51.076;13.748;2023-03-01T10:10:36;4.70;60.50
1958;DHT22;979;51.076;13.748;2023-03-01T10:13:15;4.80;60.50
1958;DHT22;979;51.076;13.748;2023-03-01T10:15:55;5.00;60.60
1958;DHT22;979;51.076;13.748;2023-03-01T10:18:28;5.00;60.20
1958;DHT22;979;51.076;13.748;2023-03-01T10:21:05;5.00;60.00
1958;DHT22;979;51.076;13.748;2023-03-01T10:23:36;5.10;60.20
1958;DHT22;979;51.076;13.748;2023-03-01T10:26:22;5.20;60.30
1958;DHT22;979;51.076;13.748;2023-03-01T10:29:01;5.30;60.20
1958;DHT22;979;51.076;13.748;2023-03-01T10:31:39;5.70;60.60
1958;DHT22;979;51.076;13.748;2023-03-01T10:34:14;5.70;60.20
1958;DHT22;979;51.076;13.748;2023-03-01T10:36:45;5.90;60.00
1958;DHT22;979;51.076;13.748;2023-03-01T10:39:17;5.80;59.70
1958;DHT22;979;51.076;13.748;2023-03-01T10:42:00;5.90;59.80
1958;DHT22;979;51.076;13.748;2023-03-01T10:44:41;6.00;59.80
1958;DHT22;979;51.076;13.748;2023-03-01T10:47:18;6.10;59.70
1958;DHT22;979;51.076;13.748;2023-03-01T10:49:58;6.30;60.20
1958;DHT22;979;51.076;13.748;2023-03-01T10:52:32;6.40;59.50
1958;DHT22;979;51.076;13.748;2023-03-01T10:55:04;6.40;59.20
1958;DHT22;979;51.076;13.748;2023-03-01T10:57:48;6.50;59.20
1958;DHT22;979;51.076;13.748;2023-03-01T11:00:23;6.60;58.70
1958;DHT22;979;51.076;13.748;2023-03-01T11:03:11;6.70;58.80
1958;DHT22;979;51.076;13.748;2023-03-01T11:06:03;6.80;58.50
1958;DHT22;979;51.076;13.748;2023-03-01T11:08:38;6.90;58.30
1958;DHT22;979;51.076;13.748;2023-03-01T11:11:23;7.00;58.30
1958;DHT22;979;51.076;13.748;2023-03-01T11:13:57;7.10;58.40
1958;DHT22;979;51.076;13.748;2023-03-01T11:16:34;7.30;58.30
1958;DHT22;979;51.076;13.748;2023-03-01T11:19:19;7.30;58.00
1958;DHT22;979;51.076;13.748;2023-03-01T11:21:57;7.40;58.10
1958;DHT22;979;51.076;13.748;2023-03-01T11:24:31;7.50;58.00
1958;DHT22;979;51.076;13.748;2023-03-01T11:27:14;7.50;57.30
1958;DHT22;979;51.076;13.748;2023-03-01T11:29:46;7.60;57.20
1958;DHT22;979;51.076;13.748;2023-03-01T11:32:19;7.60;57.10
1958;DHT22;979;51.076;13.748;2023-03-01T11:34:53;7.70;57.00
1958;DHT22;979;51.076;13.748;2023-03-01T11:37:35;7.80;56.70
1958;DHT22;979;51.076;13.748;2023-03-01T11:40:16;7.80;56.70
1958;DHT22;979;51.076;13.748;2023-03-01T11:42:55;7.90;56.60
1958;DHT22;979;51.076;13.748;2023-03-01T11:45:28;8.00;56.10
1958;DHT22;979;51.076;13.748;2023-03-01T11:48:33;8.10;56.00
1958;DHT22;979;51.076;13.748;2023-03-01T11:51:22;8.20;55.70
1958;DHT22;979;51.076;13.748;2023-03-01T11:54:09;8.90;57.10
1958;DHT22;979;51.076;13.748;2023-03-01T11:56:48;10.10;55.50
1958;DHT22;979;51.076;13.748;2023-03-01T11:59:43;11.40;54.50
1958;DHT22;979;51.076;13.748;2023-03-01T12:02:29;12.60;54.10
1958;DHT22;979;51.076;13.748;2023-03-01T12:05:24;13.90;53.40
1958;DHT22;979;51.076;13.748;2023-03-01T12:08:00;15.10;52.20
1958;DHT22;979;51.076;13.748;2023-03-01T12:10:43;16.00;51.30
1958;DHT22;979;51.076;13.748;2023-03-01T12:19:40;19.50;47.40
1958;DHT22;979;51.076;13.748;2023-03-01T12:22:21;20.30;46.40
1958;DHT22;979;51.076;13.748;2023-03-01T12:25:10;21.10;45.70
1958;DHT22;979;51.076;13.748;2023-03-01T12:28:03;21.60;43.40
1958;DHT22;979;51.076;13.748;2023-03-01T12:30:48;22.30;44.40
1958;DHT22;979;51.076;13.748;2023-03-01T12:33:24;23.40;44.00
1958;DHT22;979;51.076;13.748;2023-03-01T12:36:20;24.40;43.70
1958;DHT22;979;51.076;13.748;2023-03-01T12:39:03;24.80;41.10
1958;DHT22;979;51.076;13.748;2023-03-01T12:41:43;25.10;41.50
1958;DHT22;979;51.076;13.748;2023-03-01T12:44:45;25.40;41.20
1958;DHT22;979;51.076;13.748;2023-03-01T12:47:28;25.80;40.00
1958;DHT22;979;51.076;13.748;2023-03-01T12:50:02;25.90;39.30
1958;DHT22;979;51.076;13.748;2023-03-01T12:52:38;25.90;39.00
1958;DHT22;979;51.076;13.748;2023-03-01T12:55:19;25.70;37.70
1958;DHT22;979;51.076;13.748;2023-03-01T12:57:58;25.10;36.20
1958;DHT22;979;51.076;13.748;2023-03-01T13:00:36;24.80;36.60
1958;DHT22;979;51.076;13.748;2023-03-01T13:03:18;24.80;36.80
1958;DHT22;979;51.076;13.748;2023-03-01T13:06:01;24.80;35.50
1958;DHT22;979;51.076;13.748;2023-03-01T13:08:38;24.50;35.10
1958;DHT22;979;51.076;13.748;2023-03-01T13:11:16;24.20;35.30
1958;DHT22;979;51.076;13.748;2023-03-01T13:13:45;24.10;35.10
1958;DHT22;979;51.076;13.748;2023-03-01T13:16:42;24.20;35.80
1958;DHT22;979;51.076;13.748;2023-03-01T13:19:16;24.20;34.60
1958;DHT22;979;51.076;13.748;2023-03-01T13:21:46;24.30;35.70
1958;DHT22;979;51.076;13.748;2023-03-01T13:24:25;24.80;36.20
1958;DHT22;979;51.076;13.748;2023-03-01T13:27:22;25.40;36.00
1958;DHT22;979;51.076;13.748;2023-03-01T13:29:53;25.90;34.90
1958;DHT22;979;51.076;13.748;2023-03-01T13:32:24;26.20;35.20
1958;DHT22;979;51.076;13.748;2023-03-01T13:38:36;26.60;34.30
1958;DHT22;979;51.076;13.748;2023-03-01T13:41:05;26.50;33.80
1958;DHT22;979;51.076;13.748;2023-03-01T13:43:35;26.40;33.90
1958;DHT22;979;51.076;13.748;2023-03-01T13:46:12;25.00;32.60
1958;DHT22;979;51.076;13.748;2023-03-01T13:48:47;23.20;32.00
1958;DHT22;979;51.076;13.748;2023-03-01T13:51:21;21.30;32.10
1958;DHT22;979;51.076;13.748;2023-03-01T13:53:53;19.50;31.80
1958;DHT22;979;51.076;13.748;2023-03-01T13:56:25;18.00;32.30
1958;DHT22;979;51.076;13.748;2023-03-01T13:58:59;17.00;33.20
1958;DHT22;979;51.076;13.748;2023-03-01T14:01:31;17.00;34.70
1958;DHT22;979;51.076;13.748;2023-03-01T14:04:19;17.80;35.40
1958;DHT22;979;51.076;13.748;2023-03-01T14:06:48;19.00;35.60
1958;DHT22;979;51.076;13.748;2023-03-01T14:09:19;20.20;35.80
1958;DHT22;979;51.076;13.748;2023-03-01T14:12:02;20.90;34.50
1958;DHT22;979;51.076;13.748;2023-03-01T14:14:40;21.00;32.80
1958;DHT22;979;51.076;13.748;2023-03-01T14:20:18;18.80;31.50
1958;DHT22;979;51.076;13.748;2023-03-01T14:22:49;17.30;31.60
1958;DHT22;979;51.076;13.748;2023-03-01T14:25:26;16.10;31.90
1958;DHT22;979;51.076;13.748;2023-03-01T14:28:03;15.10;32.30
1958;DHT22;979;51.076;13.748;2023-03-01T14:30:35;14.10;32.60
1958;DHT22;979;51.076;13.748;2023-03-01T14:33:19;13.30;33.10
1958;DHT22;979;51.076;13.748;2023-03-01T14:35:57;12.60;33.70
1958;DHT22;979;51.076;13.748;2023-03-01T14:38:32;12.00;34.10
1958;DHT22;979;51.076;13.748;2023-03-01T14:41:03;11.40;34.50
1958;DHT22;979;51.076;13.748;2023-03-01T14:43:33;10.90;35.00
1958;DHT22;979;51.076;13.748;2023-03-01T14:46:01;10.60;35.60
1958;DHT22;979;51.076;13.748;2023-03-01T14:48:30;10.30;36.20
1958;DHT22;979;51.076;13.748;2023-03-01T14:51:00;10.10;36.50
1958;DHT22;979;51.076;13.748;2023-03-01T14:53:29;9.90;37.70
1958;DHT22;979;51.076;13.748;2023-03-01T14:56:16;9.80;38.30
1958;DHT22;979;51.076;13.748;2023-03-01T14:58:45;9.70;38.30
1958;DHT22;979;51.076;13.748;2023-03-01T15:01:17;9.70;38.70
1958;DHT22;979;51.076;13.748;2023-03-01T15:03:47;9.70;39.00
1958;DHT22;979;51.076;13.748;2023-03-01T15:06:20;9.60;39.20
1958;DHT22;979;51.076;13.748;2023-03-01T15:08:51;9.60;39.40
1958;DHT22;979;51.076;13.748;2023-03-01T15:11:22;9.60;39.70
1958;DHT22;979;51.076;13.748;2023-03-01T15:13:52;9.50;39.80
1958;DHT22;979;51.076;13.748;2023-03-01T15:16:24;9.50;40.10
1958;DHT22;979;51.076;13.748;2023-03-01T15:18:58;9.50;40.20
1958;DHT22;979;51.076;13.748;2023-03-01T15:21:31;9.40;40.30
1958;DHT22;979;51.076;13.748;2023-03-01T15:24:06;9.40;40.60
1958;DHT22;979;51.076;13.748;2023-03-01T15:26:50;9.40;40.80
1958;DHT22;979;51.076;13.748;2023-03-01T15:29:24;9.40;40.80
1958;DHT22;979;51.076;13.748;2023-03-01T15:31:59;9.30;40.90
1958;DHT22;979;51.076;13.748;2023-03-01T15:34:32;9.30;41.10
1958;DHT22;979;51.076;13.748;2023-03-01T15:37:04;9.30;41.30
1958;DHT22;979;51.076;13.748;2023-03-01T15:39:40;9.10;41.40
1958;DHT22;979;51.076;13.748;2023-03-01T15:42:11;9.20;41.70
1958;DHT22;979;51.076;13.748;2023-03-01T15:44:43;9.20;41.70
1958;DHT22;979;51.076;13.748;2023-03-01T15:47:35;9.10;42.00
1958;DHT22;979;51.076;13.748;2023-03-01T15:50:04;9.10;42.10
1958;DHT22;979;51.076;13.748;2023-03-01T15:52:39;9.00;42.30
1958;DHT22;979;51.076;13.748;2023-03-01T15:55:16;8.90;42.20
1958;DHT22;979;51.076;13.748;2023-03-01T15:57:45;8.90;42.30
1958;DHT22;979;51.076;13.748;2023-03-01T16:00:14;9.10;42.50
1958;DHT22;979;51.076;13.748;2023-03-01T16:02:44;8.90;42.60
1958;DHT22;979;51.076;13.748;2023-03-01T16:05:19;8.80;42.60
1958;DHT22;979;51.076;13.748;2023-03-01T16:07:49;8.80;42.80
1958;DHT22;979;51.076;13.748;2023-03-01T16:10:18;8.80;43.00
1958;DHT22;979;51.076;13.748;2023-03-01T16:12:46;8.80;43.00
1958;DHT22;979;51.076;13.748;2023-03-01T16:15:18;8.80;42.90
1958;DHT22;979;51.076;13.748;2023-03-01T16:17:47;8.80;43.00
1958;DHT22;979;51.076;13.748;2023-03-01T16:20:21;8.70;43.60
1958;DHT22;979;51.076;13.748;2023-03-01T16:23:02;8.70;43.00
1958;DHT22;979;51.076;13.748;2023-03-01T16:25:31;8.60;43.00
1958;DHT22;979;51.076;13.748;2023-03-01T16:28:00;8.50;43.20
1958;DHT22;979;51.076;13.748;2023-03-01T16:30:32;8.50;43.10
1958;DHT22;979;51.076;13.748;2023-03-01T16:33:03;8.50;43.40
1958;DHT22;979;51.076;13.748;2023-03-01T16:35:50;8.40;43.40
1958;DHT22;979;51.076;13.748;2023-03-01T16:38:21;8.30;43.40
1958;DHT22;979;51.076;13.748;2023-03-01T16:40:59;8.30;43.60
1958;DHT22;979;51.076;13.748;2023-03-01T16:43:29;8.20;43.30
1958;DHT22;979;51.076;13.748;2023-03-01T16:45:59;8.20;43.40
1958;DHT22;979;51.076;13.748;2023-03-01T16:48:28;8.10;43.50
1958;DHT22;979;51.076;13.748;2023-03-01T16:50:58;8.20;44.30
1958;DHT22;979;51.076;13.748;2023-03-01T16:53:29;8.00;43.50
1958;DHT22;979;51.076;13.748;2023-03-01T16:55:58;8.00;43.80
1958;DHT22;979;51.076;13.748;2023-03-01T16:58:26;7.80;43.80
1958;DHT22;979;51.076;13.748;2023-03-01T17:00:56;7.80;43.90